sensor_id;sensor_type;location;lat;lon;timestamp;temperature;humidity
37528;DHT22;23372;52.050;4.810;2024-02-23T00:02:06;6.80;99.90
37528;DHT22;23372;52.050;4.810;2024-02-23T00:04:31;6.80;99.90
37528;DHT22;23372;52.050;4.810;2024-02-23T00:06:57;6.80;99.90
37528;DHT22;23372;52.050;4.810;2024-02-23T00:09:22;6.80;99.90
37528;DHT22;23372;52.050;4.810;2024-02-23T00:11:49;6.80;99.90
37528;DHT22;23372;52.050;4.810;2024-02-23T00:14:15;6.80;99.90
37528;DHT22;23372;52.050;4.810;2024-02-23T00:16:43;6.80;99.90
37528;DHT22;23372;52.050;4.810;2024-02-23T00:19:10;6.80;99.90
37528;DHT22;23372;52.050;4.810;2024-02-23T00:21:38;6.90;99.90
37528;DHT22;23372;52.050;4.810;2024-02-23T00:24:05;6.90;99.90
37528;DHT22;23372;52.050;4.810;2024-02-23T00:26:31;6.90;99.90
37528;DHT22;23372;52.050;4.810;2024-02-23T00:28:57;6.90;99.90
37528;DHT22;23372;52.050;4.810;2024-02-23T00:31:22;6.90;99.90
37528;DHT22;23372;52.050;4.810;2024-02-23T00:33:48;6.80;99.90
37528;DHT22;23372;52.050;4.810;2024-02-23T00:36:14;6.80;99.90
37528;DHT22;23372;52.050;4.810;2024-02-23T00:38:39;6.80;99.90
37528;DHT22;23372;52.050;4.810;2024-02-23T00:41:05;6.80;99.90
37528;DHT22;23372;52.050;4.810;2024-02-23T00:43:38;6.80;99.90
37528;DHT22;23372;52.050;4.810;2024-02-23T00:46:03;6.80;99.90
37528;DHT22;23372;52.050;4.810;2024-02-23T00:48:29;6.60;99.90
37528;DHT22;23372;52.050;4.810;2024-02-23T00:50:55;6.50;99.90
37528;DHT22;23372;52.050;4.810;2024-02-23T00:53:21;6.30;99.90
37528;DHT22;23372;52.050;4.810;2024-02-23T00:55:47;6.30;99.90
37528;DHT22;23372;52.050;4.810;2024-02-23T00:58:13;6.30;99.90
37528;DHT22;23372;52.050;4.810;2024-02-23T01:00:38;6.00;99.90
37528;DHT22;23372;52.050;4.810;2024-02-23T01:03:04;5.50;99.90
37528;DHT22;23372;52.050;4.810;2024-02-23T01:05:30;5.10;99.90
37528;DHT22;23372;52.050;4.810;2024-02-23T01:07:56;5.10;99.90
37528;DHT22;23372;52.050;4.810;2024-02-23T01:10:21;4.90;99.90
37528;DHT22;23372;52.050;4.810;2024-02-23T01:12:47;5.10;99.90
37528;DHT22;23372;52.050;4.810;2024-02-23T01:15:13;5.20;99.90
37528;DHT22;23372;52.050;4.810;2024-02-23T01:17:38;5.30;99.90
37528;DHT22;23372;52.050;4.810;2024-02-23T01:20:04;5.30;99.90
37528;DHT22;23372;52.050;4.810;2024-02-23T01:22:30;5.40;99.90
37528;DHT22;23372;52.050;4.810;2024-02-23T01:24:55;5.50;99.90
37528;DHT22;23372;52.050;4.810;2024-02-23T01:27:21;5.60;99.90
37528;DHT22;23372;52.050;4.810;2024-02-23T01:29:48;5.70;99.90
37528;DHT22;23372;52.050;4.810;2024-02-23T01:32:13;5.80;99.90
37528;DHT22;23372;52.050;4.810;2024-02-23T01:34:39;5.80;99.90
37528;DHT22;23372;52.050;4.810;2024-02-23T01:37:04;5.90;99.90
37528;DHT22;23372;52.050;4.810;2024-02-23T01:39:30;5.90;99.90
37528;DHT22;23372;52.050;4.810;2024-02-23T01:41:56;6.00;99.90
37528;DHT22;23372;52.050;4.810;2024-02-23T01:44:21;6.00;99.90
37528;DHT22;23372;52.050;4.810;2024-02-23T01:46:47;6.00;99.90
37528;DHT22;23372;52.050;4.810;2024-02-23T01:49:13;6.10;99.90
37528;DHT22;23372;52.050;4.810;2024-02-23T01:51:39;6.10;99.90
37528;DHT22;23372;52.050;4.810;2024-02-23T01:54:05;6.10;99.90
37528;DHT22;23372;52.050;4.810;2024-02-23T01:56:32;6.10;99.90
37528;DHT22;23372;52.050;4.810;2024-02-23T01:58:59;6.10;99.90
37528;DHT22;23372;52.050;4.810;2024-02-23T02:01:24;6.10;99.90
37528;DHT22;23372;52.050;4.810;2024-02-23T02:03:50;6.10;99.90
37528;DHT22;23372;52.050;4.810;2024-02-23T02:06:16;6.20;99.90
37528;DHT22;23372;52.050;4.810;2024-02-23T02:08:41;6.10;99.90
37528;DHT22;23372;52.050;4.810;2024-02-23T02:11:07;6.20;99.90
37528;DHT22;23372;52.050;4.810;2024-02-23T02:13:32;6.10;99.90
37528;DHT22;23372;52.050;4.810;2024-02-23T02:16:00;6.10;99.90
37528;DHT22;23372;52.050;4.810;2024-02-23T02:18:26;6.10;99.90
37528;DHT22;23372;52.050;4.810;2024-02-23T02:20:56;6.00;99.90
37528;DHT22;23372;52.050;4.810;2024-02-23T02:23:22;6.00;99.90
37528;DHT22;23372;52.050;4.810;2024-02-23T02:25:58;6.00;99.90
37528;DHT22;23372;52.050;4.810;2024-02-23T02:28:24;6.00;99.90
37528;DHT22;23372;52.050;4.810;2024-02-23T02:30:51;5.90;99.90
37528;DHT22;23372;52.050;4.810;2024-02-23T02:33:18;5.90;99.90
37528;DHT22;23372;52.050;4.810;2024-02-23T02:35:44;5.90;99.90
37528;DHT22;23372;52.050;4.810;2024-02-23T02:38:10;5.80;99.90
37528;DHT22;23372;52.050;4.810;2024-02-23T02:40:36;5.80;99.90
37528;DHT22;23372;52.050;4.810;2024-02-23T02:43:02;5.70;99.90
37528;DHT22;23372;52.050;4.810;2024-02-23T02:45:28;5.70;99.90
37528;DHT22;23372;52.050;4.810;2024-02-23T02:47:53;5.70;99.90
37528;DHT22;23372;52.050;4.810;2024-02-23T02:50:19;5.60;99.90
37528;DHT22;23372;52.050;4.810;2024-02-23T02:52:45;5.60;99.90
37528;DHT22;23372;52.050;4.810;2024-02-23T02:55:11;5.60;99.90
37528;DHT22;23372;52.050;4.810;2024-02-23T02:57:37;5.60;99.90
37528;DHT22;23372;52.050;4.810;2024-02-23T03:00:03;5.60;99.90
37528;DHT22;23372;52.050;4.810;2024-02-23T03:02:31;5.60;99.90
37528;DHT22;23372;52.050;4.810;2024-02-23T03:04:57;5.60;99.90
37528;DHT22;23372;52.050;4.810;2024-02-23T03:07:22;5.60;99.90
37528;DHT22;23372;52.050;4.810;2024-02-23T03:09:48;5.50;99.90
37528;DHT22;23372;52.050;4.810;2024-02-23T03:12:16;5.50;99.90
37528;DHT22;23372;52.050;4.810;2024-02-23T03:14:41;5.50;99.90
37528;DHT22;23372;52.050;4.810;2024-02-23T03:17:07;5.50;99.90
37528;DHT22;23372;52.050;4.810;2024-02-23T03:19:35;5.50;99.90
37528;DHT22;23372;52.050;4.810;2024-02-23T03:22:00;5.50;99.90
37528;DHT22;23372;52.050;4.810;2024-02-23T03:24:26;5.40;99.90
37528;DHT22;23372;52.050;4.810;2024-02-23T03:26:52;5.40;99.90
37528;DHT22;23372;52.050;4.810;2024-02-23T03:29:17;5.40;99.90
37528;DHT22;23372;52.050;4.810;2024-02-23T03:31:43;5.40;99.90
37528;DHT22;23372;52.050;4.810;2024-02-23T03:34:08;5.30;99.90
37528;DHT22;23372;52.050;4.810;2024-02-23T03:36:34;5.30;99.90
37528;DHT22;23372;52.050;4.810;2024-02-23T03:39:01;5.30;99.90
37528;DHT22;23372;52.050;4.810;2024-02-23T03:41:27;5.30;99.90
37528;DHT22;23372;52.050;4.810;2024-02-23T03:43:52;5.30;99.90
37528;DHT22;23372;52.050;4.810;2024-02-23T03:46:18;5.30;99.90
37528;DHT22;23372;52.050;4.810;2024-02-23T03:48:45;5.20;99.90
37528;DHT22;23372;52.050;4.810;2024-02-23T03:51:11;5.20;99.90
37528;DHT22;23372;52.050;4.810;2024-02-23T03:53:36;5.10;99.90
37528;DHT22;23372;52.050;4.810;2024-02-23T03:56:02;5.10;99.90
37528;DHT22;23372;52.050;4.810;2024-02-23T03:58:28;5.10;99.90
37528;DHT22;23372;52.050;4.810;2024-02-23T04:00:54;5.10;99.90
37528;DHT22;23372;52.050;4.810;2024-02-23T04:03:19;5.00;99.90
37528;DHT22;23372;52.050;4.810;2024-02-23T04:05:45;5.10;99.90
37528;DHT22;23372;52.050;4.810;2024-02-23T04:08:11;5.10;99.90
37528;DHT22;23372;52.050;4.810;2024-02-23T04:10:36;5.10;99.90
37528;DHT22;23372;52.050;4.810;2024-02-23T04:13:02;5.10;99.90
37528;DHT22;23372;52.050;4.810;2024-02-23T04:15:27;5.10;99.90
37528;DHT22;23372;52.050;4.810;2024-02-23T04:17:53;5.00;99.90
37528;DHT22;23372;52.050;4.810;2024-02-23T04:20:18;5.10;99.90
37528;DHT22;23372;52.050;4.810;2024-02-23T04:22:44;5.00;99.90
37528;DHT22;23372;52.050;4.810;2024-02-23T04:25:09;5.00;99.90
37528;DHT22;23372;52.050;4.810;2024-02-23T04:27:35;5.00;99.90
37528;DHT22;23372;52.050;4.810;2024-02-23T04:30:01;5.00;99.90
37528;DHT22;23372;52.050;4.810;2024-02-23T04:32:26;5.00;99.90
37528;DHT22;23372;52.050;4.810;2024-02-23T04:34:52;5.00;99.90
37528;DHT22;23372;52.050;4.810;2024-02-23T04:37:18;5.10;99.90
37528;DHT22;23372;52.050;4.810;2024-02-23T04:39:44;5.20;99.90
37528;DHT22;23372;52.050;4.810;2024-02-23T04:42:09;5.30;99.90
37528;DHT22;23372;52.050;4.810;2024-02-23T04:44:35;5.20;99.90
37528;DHT22;23372;52.050;4.810;2024-02-23T04:47:02;5.30;99.90
37528;DHT22;23372;52.050;4.810;2024-02-23T04:49:27;5.30;99.90
37528;DHT22;23372;52.050;4.810;2024-02-23T04:51:54;5.40;99.90
37528;DHT22;23372;52.050;4.810;2024-02-23T04:54:20;5.40;99.90
37528;DHT22;23372;52.050;4.810;2024-02-23T04:56:46;5.40;99.90
37528;DHT22;23372;52.050;4.810;2024-02-23T04:59:12;5.40;99.90
37528;DHT22;23372;52.050;4.810;2024-02-23T05:01:38;5.40;99.90
37528;DHT22;23372;52.050;4.810;2024-02-23T05:04:04;5.40;99.90
37528;DHT22;23372;52.050;4.810;2024-02-23T05:06:30;5.40;99.90
37528;DHT22;23372;52.050;4.810;2024-02-23T05:08:55;5.40;99.90
37528;DHT22;23372;52.050;4.810;2024-02-23T05:11:21;5.40;99.90
37528;DHT22;23372;52.050;4.810;2024-02-23T05:13:47;5.40;99.90
37528;DHT22;23372;52.050;4.810;2024-02-23T05:16:14;5.50;99.90
37528;DHT22;23372;52.050;4.810;2024-02-23T05:18:40;5.50;99.90
37528;DHT22;23372;52.050;4.810;2024-02-23T05:21:06;5.50;99.90
37528;DHT22;23372;52.050;4.810;2024-02-23T05:23:32;5.60;99.90
37528;DHT22;23372;52.050;4.810;2024-02-23T05:25:58;5.60;99.90
37528;DHT22;23372;52.050;4.810;2024-02-23T05:28:23;5.60;99.90
37528;DHT22;23372;52.050;4.810;2024-02-23T05:30:49;5.60;99.90
37528;DHT22;23372;52.050;4.810;2024-02-23T05:33:14;5.60;99.90
37528;DHT22;23372;52.050;4.810;2024-02-23T05:35:40;5.60;99.90
37528;DHT22;23372;52.050;4.810;2024-02-23T05:38:05;5.60;99.90
37528;DHT22;23372;52.050;4.810;2024-02-23T05:40:31;5.70;99.90
37528;DHT22;23372;52.050;4.810;2024-02-23T05:43:01;5.60;99.90
37528;DHT22;23372;52.050;4.810;2024-02-23T05:45:26;5.60;99.90
37528;DHT22;23372;52.050;4.810;2024-02-23T05:47:52;5.60;99.90
37528;DHT22;23372;52.050;4.810;2024-02-23T05:50:17;5.50;99.90
37528;DHT22;23372;52.050;4.810;2024-02-23T05:52:43;5.50;99.90
37528;DHT22;23372;52.050;4.810;2024-02-23T05:55:09;5.40;99.90
37528;DHT22;23372;52.050;4.810;2024-02-23T05:57:34;5.40;99.90
37528;DHT22;23372;52.050;4.810;2024-02-23T06:00:00;5.50;99.90
37528;DHT22;23372;52.050;4.810;2024-02-23T06:02:25;5.50;99.90
37528;DHT22;23372;52.050;4.810;2024-02-23T06:04:51;5.50;99.90
37528;DHT22;23372;52.050;4.810;2024-02-23T06:07:17;5.50;99.90
37528;DHT22;23372;52.050;4.810;2024-02-23T06:09:45;5.50;99.90
37528;DHT22;23372;52.050;4.810;2024-02-23T06:12:11;5.50;99.90
37528;DHT22;23372;52.050;4.810;2024-02-23T06:14:36;5.60;99.90
37528;DHT22;23372;52.050;4.810;2024-02-23T06:17:02;5.60;99.90
37528;DHT22;23372;52.050;4.810;2024-02-23T06:19:28;5.60;99.90
37528;DHT22;23372;52.050;4.810;2024-02-23T06:21:54;5.70;99.90
37528;DHT22;23372;52.050;4.810;2024-02-23T06:24:19;5.70;99.90
37528;DHT22;23372;52.050;4.810;2024-02-23T06:26:45;5.70;99.90
37528;DHT22;23372;52.050;4.810;2024-02-23T06:29:11;5.70;99.90
37528;DHT22;23372;52.050;4.810;2024-02-23T06:31:38;5.70;99.90
37528;DHT22;23372;52.050;4.810;2024-02-23T06:34:07;5.70;99.90
37528;DHT22;23372;52.050;4.810;2024-02-23T06:36:33;5.70;99.90
37528;DHT22;23372;52.050;4.810;2024-02-23T06:38:58;5.70;99.90
37528;DHT22;23372;52.050;4.810;2024-02-23T06:41:24;5.70;99.90
37528;DHT22;23372;52.050;4.810;2024-02-23T06:43:49;5.70;99.90
37528;DHT22;23372;52.050;4.810;2024-02-23T06:46:19;5.70;99.90
37528;DHT22;23372;52.050;4.810;2024-02-23T06:48:45;5.80;99.90
37528;DHT22;23372;52.050;4.810;2024-02-23T06:51:11;5.70;99.90
37528;DHT22;23372;52.050;4.810;2024-02-23T06:53:36;5.70;99.90
37528;DHT22;23372;52.050;4.810;2024-02-23T06:56:03;5.70;99.90
37528;DHT22;23372;52.050;4.810;2024-02-23T06:58:29;5.70;99.90
37528;DHT22;23372;52.050;4.810;2024-02-23T07:00:54;5.70;99.90
37528;DHT22;23372;52.050;4.810;2024-02-23T07:03:20;5.70;99.90
37528;DHT22;23372;52.050;4.810;2024-02-23T07:05:45;5.70;99.90
37528;DHT22;23372;52.050;4.810;2024-02-23T07:08:12;5.70;99.90
37528;DHT22;23372;52.050;4.810;2024-02-23T07:10:38;5.80;99.90
37528;DHT22;23372;52.050;4.810;2024-02-23T07:13:04;5.70;99.90
37528;DHT22;23372;52.050;4.810;2024-02-23T07:15:29;5.80;99.90
37528;DHT22;23372;52.050;4.810;2024-02-23T07:17:55;5.80;99.90
37528;DHT22;23372;52.050;4.810;2024-02-23T07:20:22;5.80;99.90
37528;DHT22;23372;52.050;4.810;2024-02-23T07:22:48;5.80;99.90
37528;DHT22;23372;52.050;4.810;2024-02-23T07:25:19;5.80;99.90
37528;DHT22;23372;52.050;4.810;2024-02-23T07:27:49;5.80;99.90
37528;DHT22;23372;52.050;4.810;2024-02-23T07:30:15;5.90;99.90
37528;DHT22;23372;52.050;4.810;2024-02-23T07:32:41;5.90;99.90
37528;DHT22;23372;52.050;4.810;2024-02-23T07:35:07;5.80;99.90
37528;DHT22;23372;52.050;4.810;2024-02-23T07:37:33;5.80;99.90
37528;DHT22;23372;52.050;4.810;2024-02-23T07:39:59;5.80;99.90
37528;DHT22;23372;52.050;4.810;2024-02-23T07:42:24;5.70;99.90
37528;DHT22;23372;52.050;4.810;2024-02-23T07:44:50;5.80;99.90
37528;DHT22;23372;52.050;4.810;2024-02-23T07:47:15;5.70;99.90
37528;DHT22;23372;52.050;4.810;2024-02-23T07:49:41;5.70;99.90
37528;DHT22;23372;52.050;4.810;2024-02-23T07:52:07;5.70;99.90
37528;DHT22;23372;52.050;4.810;2024-02-23T07:54:32;5.70;99.90
37528;DHT22;23372;52.050;4.810;2024-02-23T07:56:58;5.70;99.90
37528;DHT22;23372;52.050;4.810;2024-02-23T07:59:24;5.60;99.90
37528;DHT22;23372;52.050;4.810;2024-02-23T08:01:50;5.60;99.90
37528;DHT22;23372;52.050;4.810;2024-02-23T08:04:15;5.50;99.90
37528;DHT22;23372;52.050;4.810;2024-02-23T08:06:41;5.50;99.90
37528;DHT22;23372;52.050;4.810;2024-02-23T08:09:08;5.40;99.90
37528;DHT22;23372;52.050;4.810;2024-02-23T08:11:34;5.40;99.90
37528;DHT22;23372;52.050;4.810;2024-02-23T08:14:00;5.40;99.90
37528;DHT22;23372;52.050;4.810;2024-02-23T08:16:26;5.40;99.90
37528;DHT22;23372;52.050;4.810;2024-02-23T08:18:52;5.30;99.90
37528;DHT22;23372;52.050;4.810;2024-02-23T08:21:17;5.40;99.90
37528;DHT22;23372;52.050;4.810;2024-02-23T08:23:44;5.40;99.90
37528;DHT22;23372;52.050;4.810;2024-02-23T08:26:10;5.40;99.90
37528;DHT22;23372;52.050;4.810;2024-02-23T08:28:35;5.50;99.90
37528;DHT22;23372;52.050;4.810;2024-02-23T08:31:01;5.50;99.90
37528;DHT22;23372;52.050;4.810;2024-02-23T08:33:26;5.50;99.90
37528;DHT22;23372;52.050;4.810;2024-02-23T08:35:52;5.50;99.90
37528;DHT22;23372;52.050;4.810;2024-02-23T08:38:18;5.50;99.90
37528;DHT22;23372;52.050;4.810;2024-02-23T08:40:44;5.50;99.90
37528;DHT22;23372;52.050;4.810;2024-02-23T08:43:10;5.60;99.90
37528;DHT22;23372;52.050;4.810;2024-02-23T08:45:36;5.60;99.90
37528;DHT22;23372;52.050;4.810;2024-02-23T08:48:02;5.60;99.90
37528;DHT22;23372;52.050;4.810;2024-02-23T08:50:29;5.60;99.90
37528;DHT22;23372;52.050;4.810;2024-02-23T08:52:54;5.60;99.90
37528;DHT22;23372;52.050;4.810;2024-02-23T08:55:20;5.60;99.90
37528;DHT22;23372;52.050;4.810;2024-02-23T08:57:46;5.50;99.90
37528;DHT22;23372;52.050;4.810;2024-02-23T09:00:12;5.50;99.90
37528;DHT22;23372;52.050;4.810;2024-02-23T09:02:38;5.60;99.90
37528;DHT22;23372;52.050;4.810;2024-02-23T09:05:04;5.60;99.90
37528;DHT22;23372;52.050;4.810;2024-02-23T09:07:30;5.70;99.90
37528;DHT22;23372;52.050;4.810;2024-02-23T09:09:56;5.70;99.90
37528;DHT22;23372;52.050;4.810;2024-02-23T09:12:22;5.80;99.90
37528;DHT22;23372;52.050;4.810;2024-02-23T09:14:48;5.90;99.90
37528;DHT22;23372;52.050;4.810;2024-02-23T09:17:13;5.90;99.90
37528;DHT22;23372;52.050;4.810;2024-02-23T09:19:39;6.00;99.90
37528;DHT22;23372;52.050;4.810;2024-02-23T09:22:04;6.10;99.90
37528;DHT22;23372;52.050;4.810;2024-02-23T09:24:30;6.30;99.90
37528;DHT22;23372;52.050;4.810;2024-02-23T09:26:55;6.50;99.90
37528;DHT22;23372;52.050;4.810;2024-02-23T09:29:21;6.50;99.90
37528;DHT22;23372;52.050;4.810;2024-02-23T09:31:47;6.80;99.90
37528;DHT22;23372;52.050;4.810;2024-02-23T09:34:13;6.80;99.90
37528;DHT22;23372;52.050;4.810;2024-02-23T09:36:39;6.80;99.90
37528;DHT22;23372;52.050;4.810;2024-02-23T09:39:04;6.80;99.90
37528;DHT22;23372;52.050;4.810;2024-02-23T09:41:30;6.70;99.90
37528;DHT22;23372;52.050;4.810;2024-02-23T09:44:01;6.50;99.90
37528;DHT22;23372;52.050;4.810;2024-02-23T09:46:26;6.50;99.90
37528;DHT22;23372;52.050;4.810;2024-02-23T09:48:53;6.60;99.90
37528;DHT22;23372;52.050;4.810;2024-02-23T09:51:21;6.60;99.90
37528;DHT22;23372;52.050;4.810;2024-02-23T09:53:49;6.60;99.90
37528;DHT22;23372;52.050;4.810;2024-02-23T09:56:17;6.70;99.90
37528;DHT22;23372;52.050;4.810;2024-02-23T09:58:44;6.80;99.90
37528;DHT22;23372;52.050;4.810;2024-02-23T10:01:10;6.80;99.90
37528;DHT22;23372;52.050;4.810;2024-02-23T10:03:37;6.80;99.90
37528;DHT22;23372;52.050;4.810;2024-02-23T10:06:04;7.00;99.90
37528;DHT22;23372;52.050;4.810;2024-02-23T10:08:30;6.90;99.90
37528;DHT22;23372;52.050;4.810;2024-02-23T10:10:56;6.90;99.90
37528;DHT22;23372;52.050;4.810;2024-02-23T10:13:23;7.10;99.90
37528;DHT22;23372;52.050;4.810;2024-02-23T10:15:52;7.00;99.90
37528;DHT22;23372;52.050;4.810;2024-02-23T10:18:18;7.60;99.90
37528;DHT22;23372;52.050;4.810;2024-02-23T10:20:43;7.70;99.90
37528;DHT22;23372;52.050;4.810;2024-02-23T10:23:10;7.30;99.90
37528;DHT22;23372;52.050;4.810;2024-02-23T10:25:36;7.30;99.90
37528;DHT22;23372;52.050;4.810;2024-02-23T10:28:03;7.90;99.90
37528;DHT22;23372;52.050;4.810;2024-02-23T10:30:29;8.80;99.90
37528;DHT22;23372;52.050;4.810;2024-02-23T10:32:56;8.90;99.90
37528;DHT22;23372;52.050;4.810;2024-02-23T10:35:22;9.00;99.90
37528;DHT22;23372;52.050;4.810;2024-02-23T10:37:49;8.60;99.90
37528;DHT22;23372;52.050;4.810;2024-02-23T10:40:18;8.40;99.90
37528;DHT22;23372;52.050;4.810;2024-02-23T10:42:44;8.30;99.90
37528;DHT22;23372;52.050;4.810;2024-02-23T10:45:16;8.10;99.90
37528;DHT22;23372;52.050;4.810;2024-02-23T10:47:42;8.90;99.90
37528;DHT22;23372;52.050;4.810;2024-02-23T10:50:09;9.10;99.90
37528;DHT22;23372;52.050;4.810;2024-02-23T10:52:35;9.70;99.90
37528;DHT22;23372;52.050;4.810;2024-02-23T10:55:02;9.10;99.90
37528;DHT22;23372;52.050;4.810;2024-02-23T10:57:31;8.80;99.90
37528;DHT22;23372;52.050;4.810;2024-02-23T11:00:00;8.80;99.90
37528;DHT22;23372;52.050;4.810;2024-02-23T11:02:28;8.70;99.90
37528;DHT22;23372;52.050;4.810;2024-02-23T11:04:56;8.40;99.90
37528;DHT22;23372;52.050;4.810;2024-02-23T11:07:22;9.00;99.90
37528;DHT22;23372;52.050;4.810;2024-02-23T11:09:54;9.10;99.90
37528;DHT22;23372;52.050;4.810;2024-02-23T11:12:29;9.40;99.90
37528;DHT22;23372;52.050;4.810;2024-02-23T11:14:58;8.90;99.90
37528;DHT22;23372;52.050;4.810;2024-02-23T11:17:36;8.30;99.90
37528;DHT22;23372;52.050;4.810;2024-02-23T11:20:06;8.00;99.90
37528;DHT22;23372;52.050;4.810;2024-02-23T11:22:33;8.40;99.90
37528;DHT22;23372;52.050;4.810;2024-02-23T11:25:04;8.30;99.90
37528;DHT22;23372;52.050;4.810;2024-02-23T11:27:37;8.30;99.90
37528;DHT22;23372;52.050;4.810;2024-02-23T11:30:05;8.20;99.90
37528;DHT22;23372;52.050;4.810;2024-02-23T11:32:38;8.30;99.90
37528;DHT22;23372;52.050;4.810;2024-02-23T11:35:10;8.30;99.90
37528;DHT22;23372;52.050;4.810;2024-02-23T11:37:51;8.40;99.90
37528;DHT22;23372;52.050;4.810;2024-02-23T11:40:22;8.10;99.90
37528;DHT22;23372;52.050;4.810;2024-02-23T11:42:48;8.00;99.90
37528;DHT22;23372;52.050;4.810;2024-02-23T11:45:13;7.90;99.90
37528;DHT22;23372;52.050;4.810;2024-02-23T11:47:39;7.90;99.90
37528;DHT22;23372;52.050;4.810;2024-02-23T11:50:10;8.00;99.90
37528;DHT22;23372;52.050;4.810;2024-02-23T11:52:39;8.10;99.90
37528;DHT22;23372;52.050;4.810;2024-02-23T11:55:06;8.00;99.90
37528;DHT22;23372;52.050;4.810;2024-02-23T11:57:35;8.00;99.90
37528;DHT22;23372;52.050;4.810;2024-02-23T12:00:02;8.10;99.90
37528;DHT22;23372;52.050;4.810;2024-02-23T12:02:28;8.00;99.90
37528;DHT22;23372;52.050;4.810;2024-02-23T12:04:54;8.00;99.90
37528;DHT22;23372;52.050;4.810;2024-02-23T12:07:19;8.30;99.90
37528;DHT22;23372;52.050;4.810;2024-02-23T12:09:47;8.60;99.90
37528;DHT22;23372;52.050;4.810;2024-02-23T12:12:13;8.40;99.90
37528;DHT22;23372;52.050;4.810;2024-02-23T12:14:40;8.40;99.90
37528;DHT22;23372;52.050;4.810;2024-02-23T12:17:08;8.40;99.90
37528;DHT22;23372;52.050;4.810;2024-02-23T12:19:38;8.70;99.90
37528;DHT22;23372;52.050;4.810;2024-02-23T12:22:04;8.80;99.90
37528;DHT22;23372;52.050;4.810;2024-02-23T12:24:29;9.00;99.90
37528;DHT22;23372;52.050;4.810;2024-02-23T12:26:56;9.00;99.90
37528;DHT22;23372;52.050;4.810;2024-02-23T12:29:22;8.90;99.90
37528;DHT22;23372;52.050;4.810;2024-02-23T12:31:47;8.80;99.90
37528;DHT22;23372;52.050;4.810;2024-02-23T12:34:13;8.50;99.90
37528;DHT22;23372;52.050;4.810;2024-02-23T12:36:39;8.60;99.90
37528;DHT22;23372;52.050;4.810;2024-02-23T12:39:05;8.90;99.90
37528;DHT22;23372;52.050;4.810;2024-02-23T12:41:31;9.20;99.90
37528;DHT22;23372;52.050;4.810;2024-02-23T12:43:57;9.10;99.90
37528;DHT22;23372;52.050;4.810;2024-02-23T12:46:23;9.20;99.90
37528;DHT22;23372;52.050;4.810;2024-02-23T12:48:49;9.10;99.90
37528;DHT22;23372;52.050;4.810;2024-02-23T12:51:15;9.10;99.90
37528;DHT22;23372;52.050;4.810;2024-02-23T12:53:42;9.10;99.90
37528;DHT22;23372;52.050;4.810;2024-02-23T12:56:10;9.00;99.90
37528;DHT22;23372;52.050;4.810;2024-02-23T12:58:37;9.00;99.90
37528;DHT22;23372;52.050;4.810;2024-02-23T13:01:03;8.90;99.90
37528;DHT22;23372;52.050;4.810;2024-02-23T13:03:29;8.90;99.90
37528;DHT22;23372;52.050;4.810;2024-02-23T13:05:56;9.00;99.90
37528;DHT22;23372;52.050;4.810;2024-02-23T13:08:22;9.10;99.90
37528;DHT22;23372;52.050;4.810;2024-02-23T13:10:49;9.10;99.90
37528;DHT22;23372;52.050;4.810;2024-02-23T13:13:14;9.00;99.90
37528;DHT22;23372;52.050;4.810;2024-02-23T13:15:44;9.00;99.90
37528;DHT22;23372;52.050;4.810;2024-02-23T13:18:09;9.00;99.90
37528;DHT22;23372;52.050;4.810;2024-02-23T13:20:39;9.00;99.90
37528;DHT22;23372;52.050;4.810;2024-02-23T13:23:07;8.90;99.90
37528;DHT22;23372;52.050;4.810;2024-02-23T13:25:34;9.00;99.90
37528;DHT22;23372;52.050;4.810;2024-02-23T13:28:00;8.90;99.90
37528;DHT22;23372;52.050;4.810;2024-02-23T13:30:25;9.00;99.90
37528;DHT22;23372;52.050;4.810;2024-02-23T13:32:51;8.90;99.90
37528;DHT22;23372;52.050;4.810;2024-02-23T13:35:17;8.80;99.90
37528;DHT22;23372;52.050;4.810;2024-02-23T13:37:43;8.70;99.90
37528;DHT22;23372;52.050;4.810;2024-02-23T13:40:09;8.80;99.90
37528;DHT22;23372;52.050;4.810;2024-02-23T13:42:36;8.70;99.90
37528;DHT22;23372;52.050;4.810;2024-02-23T13:45:07;8.70;99.90
37528;DHT22;23372;52.050;4.810;2024-02-23T13:47:35;8.60;99.90
37528;DHT22;23372;52.050;4.810;2024-02-23T13:50:01;8.60;99.90
37528;DHT22;23372;52.050;4.810;2024-02-23T13:52:27;8.60;99.90
37528;DHT22;23372;52.050;4.810;2024-02-23T13:54:53;8.60;99.90
37528;DHT22;23372;52.050;4.810;2024-02-23T13:57:18;8.70;99.90
37528;DHT22;23372;52.050;4.810;2024-02-23T13:59:44;8.70;99.90
37528;DHT22;23372;52.050;4.810;2024-02-23T14:02:10;8.70;99.90
37528;DHT22;23372;52.050;4.810;2024-02-23T14:04:35;8.60;99.90
37528;DHT22;23372;52.050;4.810;2024-02-23T14:07:01;8.60;99.90
37528;DHT22;23372;52.050;4.810;2024-02-23T14:09:26;8.60;99.90
37528;DHT22;23372;52.050;4.810;2024-02-23T14:11:52;8.50;99.90
37528;DHT22;23372;52.050;4.810;2024-02-23T14:14:18;8.60;99.90
37528;DHT22;23372;52.050;4.810;2024-02-23T14:16:45;8.50;99.90
37528;DHT22;23372;52.050;4.810;2024-02-23T14:19:11;8.50;99.90
37528;DHT22;23372;52.050;4.810;2024-02-23T14:21:36;8.50;99.90
37528;DHT22;23372;52.050;4.810;2024-02-23T14:24:03;8.50;99.90
37528;DHT22;23372;52.050;4.810;2024-02-23T14:26:28;8.50;99.90
37528;DHT22;23372;52.050;4.810;2024-02-23T14:28:54;8.50;99.90
37528;DHT22;23372;52.050;4.810;2024-02-23T14:31:20;8.40;99.90
37528;DHT22;23372;52.050;4.810;2024-02-23T14:33:45;8.30;99.90
37528;DHT22;23372;52.050;4.810;2024-02-23T14:36:11;8.30;99.90
37528;DHT22;23372;52.050;4.810;2024-02-23T14:38:36;8.30;99.90
37528;DHT22;23372;52.050;4.810;2024-02-23T14:41:02;8.20;99.90
37528;DHT22;23372;52.050;4.810;2024-02-23T14:43:28;8.30;99.90
37528;DHT22;23372;52.050;4.810;2024-02-23T14:45:57;8.30;99.90
37528;DHT22;23372;52.050;4.810;2024-02-23T14:48:22;8.30;99.90
37528;DHT22;23372;52.050;4.810;2024-02-23T14:50:48;8.30;99.90
37528;DHT22;23372;52.050;4.810;2024-02-23T14:53:15;8.20;99.90
37528;DHT22;23372;52.050;4.810;2024-02-23T14:55:40;8.20;99.90
37528;DHT22;23372;52.050;4.810;2024-02-23T14:58:06;8.30;99.90
37528;DHT22;23372;52.050;4.810;2024-02-23T15:00:31;8.30;99.90
37528;DHT22;23372;52.050;4.810;2024-02-23T15:02:58;8.30;99.90
37528;DHT22;23372;52.050;4.810;2024-02-23T15:05:24;8.30;99.90
37528;DHT22;23372;52.050;4.810;2024-02-23T15:07:49;8.20;99.90
37528;DHT22;23372;52.050;4.810;2024-02-23T15:10:15;8.30;99.90
37528;DHT22;23372;52.050;4.810;2024-02-23T15:12:40;8.30;99.90
37528;DHT22;23372;52.050;4.810;2024-02-23T15:15:07;8.30;99.90
37528;DHT22;23372;52.050;4.810;2024-02-23T15:17:33;8.40;99.90
37528;DHT22;23372;52.050;4.810;2024-02-23T15:19:58;8.70;99.90
37528;DHT22;23372;52.050;4.810;2024-02-23T15:22:24;8.80;99.90
37528;DHT22;23372;52.050;4.810;2024-02-23T15:24:51;8.80;99.90
37528;DHT22;23372;52.050;4.810;2024-02-23T15:27:17;8.80;99.90
37528;DHT22;23372;52.050;4.810;2024-02-23T15:29:43;8.70;99.90
37528;DHT22;23372;52.050;4.810;2024-02-23T15:32:09;8.70;99.90
37528;DHT22;23372;52.050;4.810;2024-02-23T15:34:36;8.60;99.90
37528;DHT22;23372;52.050;4.810;2024-02-23T15:37:01;8.40;99.90
37528;DHT22;23372;52.050;4.810;2024-02-23T15:39:27;8.40;99.90